createdAt,value
2023-01-28T00:04:07.134Z,2.57
2023-01-28T00:09:08.829Z,2.39
2023-01-28T00:14:12.214Z,2.30
2023-01-28T00:19:13.806Z,2.24
2023-01-28T00:24:15.760Z,2.08
2023-01-28T00:29:17.491Z,2.45
2023-01-28T00:34:19.716Z,1.98
2023-01-28T00:39:21.319Z,2.19
2023-01-28T00:44:22.954Z,2.22
2023-01-28T00:49:24.559Z,2.25
2023-01-28T00:54:26.244Z,2.20
2023-01-28T00:59:27.949Z,2.32
2023-01-28T01:04:35.340Z,2.21
2023-01-28T01:09:38.064Z,2.01
2023-01-28T01:14:39.609Z,2.13
2023-01-28T01:19:42.636Z,2.06
2023-01-28T01:24:44.240Z,2.09
2023-01-28T01:29:45.813Z,2.10
2023-01-28T01:34:47.465Z,2.10
2023-01-28T01:39:49.205Z,2.21
2023-01-28T01:45:00.045Z,2.06
2023-01-28T01:50:07.957Z,2.03
2023-01-28T01:55:13.297Z,2.25
2023-01-28T02:00:16.170Z,2.07
2023-01-28T02:05:20.165Z,2.11
2023-01-28T02:10:22.918Z,1.92
2023-01-28T02:15:25.236Z,2.12
2023-01-28T02:21:00.757Z,2.00
2023-01-28T02:26:09.911Z,2.05
2023-01-28T02:31:18.583Z,2.08
2023-01-28T02:36:45.421Z,2.19
2023-01-28T02:41:53.416Z,2.00
2023-01-28T02:47:13.800Z,2.02
2023-01-28T02:52:20.392Z,2.01
2023-01-28T02:57:40.859Z,2.05
2023-01-28T03:02:44.635Z,2.01
2023-01-28T03:07:47.017Z,1.88
2023-01-28T03:13:10.369Z,2.08
2023-01-28T03:18:38.765Z,1.93
2023-01-28T03:24:20.086Z,1.79
2023-01-28T03:29:42.228Z,1.99
2023-01-28T03:35:05.813Z,1.98
2023-01-28T03:40:08.172Z,2.03
2023-01-28T03:45:10.256Z,1.77
2023-01-28T03:50:12.083Z,1.81
2023-01-28T03:55:47.866Z,1.84
2023-01-28T04:00:49.452Z,1.98
2023-01-28T04:06:06.181Z,1.71
2023-01-28T04:11:27.348Z,1.83
2023-01-28T04:16:30.774Z,1.74
2023-01-28T04:21:32.899Z,1.52
2023-01-28T04:26:36.669Z,1.46
2023-01-28T04:31:39.546Z,1.38
2023-01-28T04:37:04.168Z,1.48
2023-01-28T04:42:24.166Z,1.63
2023-01-28T04:47:40.028Z,1.42
2023-01-28T04:53:00.155Z,1.16
2023-01-28T04:58:14.135Z,1.22
2023-01-28T05:03:17.835Z,1.30
2023-01-28T05:08:19.459Z,1.22
2023-01-28T05:13:21.925Z,0.86
2023-01-28T05:18:23.780Z,0.75
2023-01-28T05:23:44.351Z,0.29
2023-01-28T05:28:45.964Z,0.61
2023-01-28T05:33:47.679Z,0.77
2023-01-28T05:38:50.258Z,0.61
2023-01-28T05:43:52.054Z,0.42
2023-01-28T05:49:13.432Z,0.65
2023-01-28T05:54:45.905Z,0.52
2023-01-28T05:59:47.486Z,0.50
2023-01-28T06:04:49.075Z,0.76
2023-01-28T06:09:52.326Z,0.66
2023-01-28T06:14:56.516Z,0.49
2023-01-28T06:20:17.478Z,0.53
2023-01-28T06:25:22.497Z,0.49
2023-01-28T06:30:24.282Z,0.63
2023-01-28T06:35:25.854Z,0.24
2023-01-28T06:40:27.449Z,0.47
2023-01-28T06:45:29.275Z,0.22
2023-01-28T06:50:30.895Z,0.17
2023-01-28T06:55:32.476Z,0.30
2023-01-28T07:00:34.383Z,0.08
2023-01-28T07:05:36.021Z,0.36
2023-01-28T07:10:37.874Z,0.36
2023-01-28T07:15:39.499Z,0.45
2023-01-28T07:20:41.085Z,0.36
2023-01-28T07:25:42.618Z,0.39
2023-01-28T07:30:44.308Z,0.37
2023-01-28T07:35:46.570Z,0.23
2023-01-28T07:40:48.370Z,0.24
2023-01-28T07:45:50.188Z,0.45
2023-01-28T07:50:51.911Z,0.51
2023-01-28T07:55:59.510Z,0.24
2023-01-28T08:01:02.137Z,0.31
2023-01-28T08:06:04.024Z,0.28
2023-01-28T08:11:10.670Z,0.34
2023-01-28T08:16:12.731Z,0.40
2023-01-28T08:21:14.409Z,0.60
2023-01-28T08:26:15.949Z,0.53
2023-01-28T08:31:17.551Z,0.45
2023-01-28T08:36:19.155Z,0.47
2023-01-28T08:41:24.095Z,0.53
2023-01-28T08:46:25.861Z,0.61
2023-01-28T08:51:27.458Z,0.73
2023-01-28T08:56:30.446Z,0.57
2023-01-28T09:01:32.156Z,0.61
2023-01-28T09:06:33.816Z,0.49
2023-01-28T09:11:35.433Z,0.77
2023-01-28T09:16:36.990Z,0.62
2023-01-28T09:21:41.367Z,0.73
2023-01-28T09:26:44.486Z,0.70
2023-01-28T09:31:46.197Z,0.83
2023-01-28T09:36:47.824Z,0.58
2023-01-28T09:42:09.866Z,0.56
2023-01-28T09:47:51.915Z,0.76
2023-01-28T09:52:57.986Z,0.75
2023-01-28T09:57:59.704Z,0.91
2023-01-28T10:03:36.698Z,0.74
2023-01-28T10:09:05.908Z,0.66
2023-01-28T10:14:19.616Z,0.85
2023-01-28T10:19:30.733Z,0.69
2023-01-28T10:24:38.296Z,0.84
2023-01-28T10:29:43.915Z,0.65
2023-01-28T10:34:45.557Z,0.81
2023-01-28T10:39:47.320Z,0.63
2023-01-28T10:44:49.759Z,0.80
2023-01-28T10:49:53.491Z,0.84
2023-01-28T10:55:02.894Z,0.74
2023-01-28T11:00:26.235Z,0.58
2023-01-28T11:05:30.408Z,0.73
2023-01-28T11:10:37.558Z,0.79
2023-01-28T11:15:46.559Z,0.58
2023-01-28T11:21:03.445Z,0.62
2023-01-28T11:26:07.613Z,0.78
2023-01-28T11:31:11.368Z,0.74
2023-01-28T11:36:21.628Z,0.85
2023-01-28T11:41:34.700Z,0.89
2023-01-28T11:47:25.703Z,0.81
2023-01-28T11:53:05.059Z,0.91
2023-01-28T11:58:18.697Z,0.59
2023-01-28T12:03:34.718Z,0.93
2023-01-28T12:09:14.804Z,0.75
2023-01-28T12:14:55.587Z,0.71
2023-01-28T12:20:06.396Z,0.56
2023-01-28T12:25:25.979Z,0.67
2023-01-28T12:31:07.921Z,0.73
2023-01-28T12:36:22.206Z,0.61
2023-01-28T12:41:33.157Z,0.71
2023-01-28T12:46:45.590Z,0.81
2023-01-28T12:51:54.206Z,0.67
2023-01-28T12:56:56.514Z,0.58
2023-01-28T13:02:04.160Z,0.60
2023-01-28T13:07:20.992Z,0.81
2023-01-28T13:12:23.102Z,0.88
2023-01-28T13:17:27.724Z,0.95
2023-01-28T13:22:35.259Z,0.86
2023-01-28T13:27:36.997Z,0.69
2023-01-28T13:32:39.807Z,0.80
2023-01-28T13:37:45.271Z,0.74
2023-01-28T13:42:58.348Z,0.73
2023-01-28T13:48:18.424Z,0.82
2023-01-28T13:53:42.957Z,0.66
2023-01-28T13:59:03.332Z,0.59
2023-01-28T14:04:23.384Z,0.60
2023-01-28T14:09:54.204Z,0.79
2023-01-28T14:15:12.394Z,0.72
2023-01-28T14:20:25.328Z,0.73
2023-01-28T14:25:52.209Z,0.68
2023-01-28T14:30:58.015Z,0.66
2023-01-28T14:35:59.708Z,0.77
2023-01-28T14:41:02.131Z,0.79
2023-01-28T14:46:17.555Z,0.63
2023-01-28T14:51:54.911Z,0.53
2023-01-28T14:57:28.751Z,0.62
2023-01-28T15:02:31.316Z,0.65
2023-01-28T15:07:32.913Z,0.55
2023-01-28T15:12:37.745Z,0.94
2023-01-28T15:17:39.405Z,0.84
2023-01-28T15:22:42.280Z,0.81
2023-01-28T15:27:43.827Z,0.79
2023-01-28T15:32:45.438Z,0.92
2023-01-28T15:42:54.966Z,0.91
2023-01-28T15:48:05.130Z,0.88
2023-01-28T15:53:14.286Z,0.97
2023-01-28T15:58:29.765Z,0.74
2023-01-28T16:03:31.416Z,0.93
2023-01-28T16:08:42.552Z,0.99
2023-01-28T16:13:44.495Z,1.05
2023-01-28T16:18:49.089Z,1.00
2023-01-28T16:24:01.415Z,0.95
2023-01-28T16:29:14.221Z,0.81
2023-01-28T16:34:15.860Z,1.16
2023-01-28T16:39:17.486Z,0.88
2023-01-28T16:44:19.043Z,0.88
2023-01-28T16:49:20.627Z,0.88
2023-01-28T16:54:22.516Z,0.94
2023-01-28T16:59:24.095Z,0.96
2023-01-28T17:04:25.823Z,0.88
2023-01-28T17:09:27.513Z,0.80
2023-01-28T17:14:29.077Z,0.90
2023-01-28T17:19:31.084Z,0.77
2023-01-28T17:24:32.708Z,0.88
2023-01-28T17:29:34.310Z,0.81
2023-01-28T17:34:35.913Z,0.86
2023-01-28T17:39:37.557Z,0.95
2023-01-28T17:44:39.168Z,1.00
2023-01-28T17:49:40.731Z,1.04
2023-01-28T17:54:42.353Z,1.01
2023-01-28T17:59:43.980Z,1.09
2023-01-28T18:04:46.614Z,1.10
2023-01-28T18:09:48.749Z,0.94
2023-01-28T18:14:50.486Z,0.93
2023-01-28T18:19:52.017Z,0.94
2023-01-28T18:24:53.634Z,0.80
2023-01-28T18:29:55.259Z,0.97
2023-01-28T18:34:56.875Z,0.71
2023-01-28T18:39:58.489Z,0.77
2023-01-28T18:45:00.145Z,0.92
2023-01-28T18:50:02.115Z,0.85
2023-01-28T18:55:04.151Z,1.07
2023-01-28T19:00:06.473Z,0.86
2023-01-28T19:05:08.348Z,0.87
2023-01-28T19:10:10.263Z,1.06
2023-01-28T19:15:12.095Z,1.09
2023-01-28T19:20:14.077Z,1.04
2023-01-28T19:25:16.479Z,1.17
2023-01-28T19:30:18.387Z,1.15
2023-01-28T19:35:21.076Z,1.16
2023-01-28T19:40:23.921Z,1.15
2023-01-28T19:45:25.561Z,1.00
2023-01-28T19:50:27.148Z,1.01
2023-01-28T19:55:28.738Z,1.17
2023-01-28T20:00:30.352Z,1.04
2023-01-28T20:05:32.203Z,1.15
2023-01-28T20:10:33.821Z,0.98
2023-01-28T20:15:39.730Z,1.12
2023-01-28T20:20:41.312Z,0.81
2023-01-28T20:25:42.842Z,0.93
2023-01-28T20:30:44.567Z,1.11
2023-01-28T20:35:46.540Z,1.17
2023-01-28T20:40:48.150Z,1.03
2023-01-28T20:45:50.273Z,1.13
2023-01-28T20:50:51.821Z,1.07
2023-01-28T20:55:58.400Z,1.11
2023-01-28T21:00:59.998Z,0.79
2023-01-28T21:06:01.688Z,1.08
2023-01-28T21:11:04.149Z,1.07
2023-01-28T21:16:06.333Z,1.00
2023-01-28T21:21:11.605Z,1.12
2023-01-28T21:26:15.309Z,1.13
2023-01-28T21:31:17.865Z,1.02
2023-01-28T21:36:20.085Z,1.07
2023-01-28T21:41:22.159Z,1.12
2023-01-28T21:46:28.244Z,1.26
2023-01-28T21:51:36.197Z,1.31
2023-01-28T21:56:38.070Z,1.20
2023-01-28T22:01:39.728Z,1.20
2023-01-28T22:06:42.353Z,1.19
2023-01-28T22:11:44.684Z,1.10
2023-01-28T22:16:46.988Z,1.23
2023-01-28T22:21:48.666Z,1.35
2023-01-28T22:26:50.901Z,1.18
2023-01-28T22:31:53.477Z,1.31
2023-01-28T22:36:55.142Z,1.31
2023-01-28T22:41:56.787Z,1.32
2023-01-28T22:46:58.338Z,1.36
2023-01-28T22:51:59.997Z,1.25
2023-01-28T22:57:01.593Z,1.19
2023-01-28T23:02:03.245Z,1.26
2023-01-28T23:07:05.385Z,1.20
2023-01-28T23:12:07.285Z,1.36
2023-01-28T23:17:29.945Z,1.28
2023-01-28T23:22:51.195Z,1.32
2023-01-28T23:27:52.803Z,1.22
2023-01-28T23:32:56.447Z,1.28
2023-01-28T23:37:58.430Z,1.17
2023-01-28T23:43:00.155Z,1.27
2023-01-28T23:48:04.218Z,1.33
2023-01-28T23:53:12.992Z,1.30
2023-01-28T23:58:14.586Z,1.28
